sensor_id;sensor_type;location;lat;lon;timestamp;P1;durP1;ratioP1;P2;durP2;ratioP2
16159;SDS011;8185;57.818;15.224;2022-11-20T00:00:19;4.87;;;2.90;;
16159;SDS011;8185;57.818;15.224;2022-11-20T00:02:46;3.07;;;2.80;;
16159;SDS011;8185;57.818;15.224;2022-11-20T00:05:13;4.73;;;3.10;;
16159;SDS011;8185;57.818;15.224;2022-11-20T00:07:42;3.20;;;2.90;;
16159;SDS011;8185;57.818;15.224;2022-11-20T00:10:09;2.97;;;2.77;;
16159;SDS011;8185;57.818;15.224;2022-11-20T00:12:37;3.70;;;2.90;;
16159;SDS011;8185;57.818;15.224;2022-11-20T00:15:04;3.30;;;3.00;;
16159;SDS011;8185;57.818;15.224;2022-11-20T00:17:32;3.13;;;2.80;;
16159;SDS011;8185;57.818;15.224;2022-11-20T00:19:59;3.10;;;2.73;;
16159;SDS011;8185;57.818;15.224;2022-11-20T00:22:26;4.07;;;3.03;;
16159;SDS011;8185;57.818;15.224;2022-11-20T00:24:55;3.50;;;3.17;;
16159;SDS011;8185;57.818;15.224;2022-11-20T00:27:23;3.40;;;3.10;;
16159;SDS011;8185;57.818;15.224;2022-11-20T00:29:50;4.37;;;3.20;;
16159;SDS011;8185;57.818;15.224;2022-11-20T00:32:17;3.50;;;3.20;;
16159;SDS011;8185;57.818;15.224;2022-11-20T00:34:44;3.30;;;3.00;;
16159;SDS011;8185;57.818;15.224;2022-11-20T00:37:12;3.43;;;3.13;;
16159;SDS011;8185;57.818;15.224;2022-11-20T00:39:39;3.17;;;2.97;;
16159;SDS011;8185;57.818;15.224;2022-11-20T00:42:08;3.27;;;3.03;;
16159;SDS011;8185;57.818;15.224;2022-11-20T00:44:35;3.73;;;3.43;;
16159;SDS011;8185;57.818;15.224;2022-11-20T00:47:02;3.93;;;2.90;;
16159;SDS011;8185;57.818;15.224;2022-11-20T00:49:29;3.27;;;2.97;;
16159;SDS011;8185;57.818;15.224;2022-11-20T00:51:57;3.30;;;3.00;;
16159;SDS011;8185;57.818;15.224;2022-11-20T00:54:24;3.27;;;2.97;;
16159;SDS011;8185;57.818;15.224;2022-11-20T00:56:52;3.00;;;2.80;;
16159;SDS011;8185;57.818;15.224;2022-11-20T00:59:21;5.17;;;3.00;;
16159;SDS011;8185;57.818;15.224;2022-11-20T01:01:48;3.23;;;2.90;;
16159;SDS011;8185;57.818;15.224;2022-11-20T01:04:15;3.40;;;2.90;;
16159;SDS011;8185;57.818;15.224;2022-11-20T01:06:42;2.83;;;2.53;;
16159;SDS011;8185;57.818;15.224;2022-11-20T01:09:11;3.30;;;3.00;;
16159;SDS011;8185;57.818;15.224;2022-11-20T01:11:41;3.47;;;3.17;;
16159;SDS011;8185;57.818;15.224;2022-11-20T01:14:10;2.90;;;2.70;;
16159;SDS011;8185;57.818;15.224;2022-11-20T01:16:41;2.97;;;2.73;;
16159;SDS011;8185;57.818;15.224;2022-11-20T01:19:10;2.73;;;2.53;;
16159;SDS011;8185;57.818;15.224;2022-11-20T01:21:40;3.50;;;2.77;;
16159;SDS011;8185;57.818;15.224;2022-11-20T01:24:10;3.53;;;3.00;;
16159;SDS011;8185;57.818;15.224;2022-11-20T01:26:39;3.60;;;2.90;;
16159;SDS011;8185;57.818;15.224;2022-11-20T01:29:09;2.80;;;2.60;;
16159;SDS011;8185;57.818;15.224;2022-11-20T01:31:38;3.40;;;3.13;;
16159;SDS011;8185;57.818;15.224;2022-11-20T01:34:10;3.23;;;2.93;;
16159;SDS011;8185;57.818;15.224;2022-11-20T01:36:38;3.60;;;2.83;;
16159;SDS011;8185;57.818;15.224;2022-11-20T01:39:07;3.63;;;3.20;;
16159;SDS011;8185;57.818;15.224;2022-11-20T01:41:37;4.10;;;3.00;;
16159;SDS011;8185;57.818;15.224;2022-11-20T01:44:39;3.37;;;3.07;;
16159;SDS011;8185;57.818;15.224;2022-11-20T01:47:16;3.73;;;3.07;;
16159;SDS011;8185;57.818;15.224;2022-11-20T01:49:48;4.67;;;2.83;;
16159;SDS011;8185;57.818;15.224;2022-11-20T01:52:19;2.70;;;2.50;;
16159;SDS011;8185;57.818;15.224;2022-11-20T01:54:49;3.00;;;2.77;;
16159;SDS011;8185;57.818;15.224;2022-11-20T01:57:20;3.23;;;2.93;;
16159;SDS011;8185;57.818;15.224;2022-11-20T01:59:50;3.53;;;3.23;;
16159;SDS011;8185;57.818;15.224;2022-11-20T02:02:22;3.40;;;3.10;;
16159;SDS011;8185;57.818;15.224;2022-11-20T02:04:50;3.10;;;2.80;;
16159;SDS011;8185;57.818;15.224;2022-11-20T02:07:20;3.20;;;2.90;;
16159;SDS011;8185;57.818;15.224;2022-11-20T02:09:49;4.00;;;3.07;;
16159;SDS011;8185;57.818;15.224;2022-11-20T02:12:17;3.07;;;2.87;;
16159;SDS011;8185;57.818;15.224;2022-11-20T02:14:58;3.17;;;2.87;;
16159;SDS011;8185;57.818;15.224;2022-11-20T02:17:27;3.10;;;2.90;;
16159;SDS011;8185;57.818;15.224;2022-11-20T02:19:54;4.20;;;3.43;;
16159;SDS011;8185;57.818;15.224;2022-11-20T02:22:23;3.53;;;3.23;;
16159;SDS011;8185;57.818;15.224;2022-11-20T02:24:56;3.73;;;3.43;;
16159;SDS011;8185;57.818;15.224;2022-11-20T02:27:28;3.60;;;3.30;;
16159;SDS011;8185;57.818;15.224;2022-11-20T02:29:57;3.90;;;3.60;;
16159;SDS011;8185;57.818;15.224;2022-11-20T02:32:28;3.60;;;3.10;;
16159;SDS011;8185;57.818;15.224;2022-11-20T02:34:56;3.07;;;2.87;;
16159;SDS011;8185;57.818;15.224;2022-11-20T02:37:25;4.03;;;3.00;;
16159;SDS011;8185;57.818;15.224;2022-11-20T02:40:00;3.10;;;2.63;;
16159;SDS011;8185;57.818;15.224;2022-11-20T02:42:27;3.50;;;3.20;;
16159;SDS011;8185;57.818;15.224;2022-11-20T02:44:54;3.23;;;2.90;;
16159;SDS011;8185;57.818;15.224;2022-11-20T02:47:22;3.07;;;2.73;;
16159;SDS011;8185;57.818;15.224;2022-11-20T02:49:49;3.00;;;2.80;;
16159;SDS011;8185;57.818;15.224;2022-11-20T02:52:16;2.63;;;2.43;;
16159;SDS011;8185;57.818;15.224;2022-11-20T02:54:43;3.17;;;2.87;;
16159;SDS011;8185;57.818;15.224;2022-11-20T02:57:12;2.90;;;2.70;;
16159;SDS011;8185;57.818;15.224;2022-11-20T02:59:39;3.87;;;3.00;;
16159;SDS011;8185;57.818;15.224;2022-11-20T03:02:06;3.10;;;2.80;;
16159;SDS011;8185;57.818;15.224;2022-11-20T03:04:34;2.70;;;2.50;;
16159;SDS011;8185;57.818;15.224;2022-11-20T03:07:01;3.10;;;2.90;;
16159;SDS011;8185;57.818;15.224;2022-11-20T03:09:28;3.20;;;3.00;;
16159;SDS011;8185;57.818;15.224;2022-11-20T03:11:56;2.73;;;2.53;;
16159;SDS011;8185;57.818;15.224;2022-11-20T03:14:25;2.90;;;2.70;;
16159;SDS011;8185;57.818;15.224;2022-11-20T03:16:52;3.00;;;2.80;;
16159;SDS011;8185;57.818;15.224;2022-11-20T03:19:19;2.73;;;2.53;;
16159;SDS011;8185;57.818;15.224;2022-11-20T03:21:46;2.90;;;2.70;;
16159;SDS011;8185;57.818;15.224;2022-11-20T03:24:14;3.27;;;2.90;;
16159;SDS011;8185;57.818;15.224;2022-11-20T03:26:41;3.47;;;2.80;;
16159;SDS011;8185;57.818;15.224;2022-11-20T03:29:09;3.07;;;2.80;;
16159;SDS011;8185;57.818;15.224;2022-11-20T03:31:37;4.10;;;3.00;;
16159;SDS011;8185;57.818;15.224;2022-11-20T03:34:06;2.83;;;2.63;;
16159;SDS011;8185;57.818;15.224;2022-11-20T03:36:34;2.77;;;2.57;;
16159;SDS011;8185;57.818;15.224;2022-11-20T03:39:03;3.30;;;2.70;;
16159;SDS011;8185;57.818;15.224;2022-11-20T03:41:31;2.93;;;2.73;;
16159;SDS011;8185;57.818;15.224;2022-11-20T03:44:04;3.27;;;2.97;;
16159;SDS011;8185;57.818;15.224;2022-11-20T03:46:32;2.50;;;2.30;;
16159;SDS011;8185;57.818;15.224;2022-11-20T03:49:01;2.70;;;2.50;;
16159;SDS011;8185;57.818;15.224;2022-11-20T03:51:29;2.73;;;2.53;;
16159;SDS011;8185;57.818;15.224;2022-11-20T03:53:58;3.10;;;2.70;;
16159;SDS011;8185;57.818;15.224;2022-11-20T03:56:28;2.63;;;2.43;;
16159;SDS011;8185;57.818;15.224;2022-11-20T03:58:57;2.70;;;2.50;;
16159;SDS011;8185;57.818;15.224;2022-11-20T04:01:25;2.77;;;2.57;;
16159;SDS011;8185;57.818;15.224;2022-11-20T04:03:54;2.93;;;2.70;;
16159;SDS011;8185;57.818;15.224;2022-11-20T04:06:24;3.23;;;2.83;;
16159;SDS011;8185;57.818;15.224;2022-11-20T04:08:53;2.93;;;2.63;;
16159;SDS011;8185;57.818;15.224;2022-11-20T04:11:22;3.03;;;2.73;;
16159;SDS011;8185;57.818;15.224;2022-11-20T04:13:50;3.10;;;2.80;;
16159;SDS011;8185;57.818;15.224;2022-11-20T04:16:19;3.23;;;2.93;;
16159;SDS011;8185;57.818;15.224;2022-11-20T04:18:51;2.97;;;2.77;;
16159;SDS011;8185;57.818;15.224;2022-11-20T04:21:19;3.30;;;2.50;;
16159;SDS011;8185;57.818;15.224;2022-11-20T04:23:48;3.10;;;2.80;;
16159;SDS011;8185;57.818;15.224;2022-11-20T04:26:15;2.87;;;2.57;;
16159;SDS011;8185;57.818;15.224;2022-11-20T04:28:43;3.03;;;2.73;;
16159;SDS011;8185;57.818;15.224;2022-11-20T04:31:11;2.63;;;2.43;;
16159;SDS011;8185;57.818;15.224;2022-11-20T04:33:40;2.77;;;2.57;;
16159;SDS011;8185;57.818;15.224;2022-11-20T04:36:09;2.80;;;2.60;;
16159;SDS011;8185;57.818;15.224;2022-11-20T04:38:39;3.77;;;2.77;;
16159;SDS011;8185;57.818;15.224;2022-11-20T04:41:08;2.63;;;2.43;;
16159;SDS011;8185;57.818;15.224;2022-11-20T04:43:40;3.03;;;2.73;;
16159;SDS011;8185;57.818;15.224;2022-11-20T04:46:07;2.57;;;2.37;;
16159;SDS011;8185;57.818;15.224;2022-11-20T04:48:35;2.93;;;2.70;;
16159;SDS011;8185;57.818;15.224;2022-11-20T04:51:02;3.90;;;2.87;;
16159;SDS011;8185;57.818;15.224;2022-11-20T04:53:30;2.57;;;2.30;;
16159;SDS011;8185;57.818;15.224;2022-11-20T04:55:59;2.60;;;2.40;;
16159;SDS011;8185;57.818;15.224;2022-11-20T04:58:28;2.80;;;2.60;;
16159;SDS011;8185;57.818;15.224;2022-11-20T05:01:00;2.70;;;2.50;;
16159;SDS011;8185;57.818;15.224;2022-11-20T05:03:29;2.60;;;2.40;;
16159;SDS011;8185;57.818;15.224;2022-11-20T05:05:57;2.87;;;2.60;;
16159;SDS011;8185;57.818;15.224;2022-11-20T05:08:26;2.50;;;2.30;;
16159;SDS011;8185;57.818;15.224;2022-11-20T05:10:54;2.80;;;2.60;;
16159;SDS011;8185;57.818;15.224;2022-11-20T05:13:27;3.37;;;3.03;;
16159;SDS011;8185;57.818;15.224;2022-11-20T05:15:55;3.20;;;2.90;;
16159;SDS011;8185;57.818;15.224;2022-11-20T05:18:27;2.73;;;2.50;;
16159;SDS011;8185;57.818;15.224;2022-11-20T05:20:54;3.63;;;2.40;;
16159;SDS011;8185;57.818;15.224;2022-11-20T05:23:22;3.03;;;2.50;;
16159;SDS011;8185;57.818;15.224;2022-11-20T05:25:51;2.90;;;2.70;;
16159;SDS011;8185;57.818;15.224;2022-11-20T05:28:19;2.80;;;2.60;;
16159;SDS011;8185;57.818;15.224;2022-11-20T05:30:48;2.77;;;2.57;;
16159;SDS011;8185;57.818;15.224;2022-11-20T05:33:16;2.60;;;2.40;;
16159;SDS011;8185;57.818;15.224;2022-11-20T05:35:43;3.80;;;3.00;;
16159;SDS011;8185;57.818;15.224;2022-11-20T05:38:10;2.77;;;2.57;;
16159;SDS011;8185;57.818;15.224;2022-11-20T05:40:38;2.90;;;2.60;;
16159;SDS011;8185;57.818;15.224;2022-11-20T05:43:05;2.80;;;2.60;;
16159;SDS011;8185;57.818;15.224;2022-11-20T05:45:32;3.00;;;2.70;;
16159;SDS011;8185;57.818;15.224;2022-11-20T05:48:01;2.47;;;2.27;;
16159;SDS011;8185;57.818;15.224;2022-11-20T05:50:29;2.40;;;2.20;;
16159;SDS011;8185;57.818;15.224;2022-11-20T05:52:57;2.97;;;2.63;;
16159;SDS011;8185;57.818;15.224;2022-11-20T05:55:25;3.43;;;2.50;;
16159;SDS011;8185;57.818;15.224;2022-11-20T05:57:52;2.77;;;2.40;;
16159;SDS011;8185;57.818;15.224;2022-11-20T06:00:20;2.60;;;2.40;;
16159;SDS011;8185;57.818;15.224;2022-11-20T06:02:47;3.13;;;2.83;;
16159;SDS011;8185;57.818;15.224;2022-11-20T06:05:16;2.47;;;2.23;;
16159;SDS011;8185;57.818;15.224;2022-11-20T06:07:43;2.70;;;2.50;;
16159;SDS011;8185;57.818;15.224;2022-11-20T06:10:10;2.63;;;2.43;;
16159;SDS011;8185;57.818;15.224;2022-11-20T06:12:38;2.70;;;2.50;;
16159;SDS011;8185;57.818;15.224;2022-11-20T06:15:06;2.83;;;2.53;;
16159;SDS011;8185;57.818;15.224;2022-11-20T06:17:33;2.93;;;2.73;;
16159;SDS011;8185;57.818;15.224;2022-11-20T06:20:01;2.60;;;2.40;;
16159;SDS011;8185;57.818;15.224;2022-11-20T06:22:30;2.53;;;2.33;;
16159;SDS011;8185;57.818;15.224;2022-11-20T06:24:58;2.40;;;2.30;;
16159;SDS011;8185;57.818;15.224;2022-11-20T06:27:25;2.67;;;2.47;;
16159;SDS011;8185;57.818;15.224;2022-11-20T06:29:53;3.00;;;2.80;;
16159;SDS011;8185;57.818;15.224;2022-11-20T06:32:20;2.83;;;2.63;;
16159;SDS011;8185;57.818;15.224;2022-11-20T06:34:48;3.23;;;2.93;;
16159;SDS011;8185;57.818;15.224;2022-11-20T06:37:15;3.53;;;3.23;;
16159;SDS011;8185;57.818;15.224;2022-11-20T06:39:44;3.00;;;2.80;;
16159;SDS011;8185;57.818;15.224;2022-11-20T06:42:11;2.60;;;2.40;;
16159;SDS011;8185;57.818;15.224;2022-11-20T06:44:38;2.30;;;2.10;;
16159;SDS011;8185;57.818;15.224;2022-11-20T06:47:06;3.00;;;2.33;;
16159;SDS011;8185;57.818;15.224;2022-11-20T06:49:33;2.27;;;2.17;;
16159;SDS011;8185;57.818;15.224;2022-11-20T06:52:02;2.50;;;2.30;;
16159;SDS011;8185;57.818;15.224;2022-11-20T06:54:29;2.70;;;2.50;;
16159;SDS011;8185;57.818;15.224;2022-11-20T06:56:58;2.50;;;2.30;;
16159;SDS011;8185;57.818;15.224;2022-11-20T06:59:25;2.60;;;2.40;;
16159;SDS011;8185;57.818;15.224;2022-11-20T07:01:52;2.53;;;2.33;;
16159;SDS011;8185;57.818;15.224;2022-11-20T07:04:20;3.47;;;2.50;;
16159;SDS011;8185;57.818;15.224;2022-11-20T07:06:47;2.70;;;2.50;;
16159;SDS011;8185;57.818;15.224;2022-11-20T07:09:15;2.50;;;2.30;;
16159;SDS011;8185;57.818;15.224;2022-11-20T07:11:42;2.40;;;2.20;;
16159;SDS011;8185;57.818;15.224;2022-11-20T07:14:11;2.40;;;2.20;;
16159;SDS011;8185;57.818;15.224;2022-11-20T07:16:38;2.60;;;2.40;;
16159;SDS011;8185;57.818;15.224;2022-11-20T07:19:06;1.80;;;1.70;;
16159;SDS011;8185;57.818;15.224;2022-11-20T07:21:33;2.07;;;1.93;;
16159;SDS011;8185;57.818;15.224;2022-11-20T07:24:00;1.70;;;1.60;;
16159;SDS011;8185;57.818;15.224;2022-11-20T07:26:28;1.60;;;1.50;;
16159;SDS011;8185;57.818;15.224;2022-11-20T07:28:55;1.70;;;1.60;;
16159;SDS011;8185;57.818;15.224;2022-11-20T07:31:24;1.60;;;1.50;;
16159;SDS011;8185;57.818;15.224;2022-11-20T07:33:51;1.60;;;1.50;;
16159;SDS011;8185;57.818;15.224;2022-11-20T07:36:18;1.40;;;1.30;;
16159;SDS011;8185;57.818;15.224;2022-11-20T07:38:45;1.90;;;1.80;;
16159;SDS011;8185;57.818;15.224;2022-11-20T07:41:13;2.10;;;2.00;;
16159;SDS011;8185;57.818;15.224;2022-11-20T07:43:41;1.60;;;1.50;;
16159;SDS011;8185;57.818;15.224;2022-11-20T07:46:08;1.67;;;1.57;;
16159;SDS011;8185;57.818;15.224;2022-11-20T07:48:37;1.37;;;1.27;;
16159;SDS011;8185;57.818;15.224;2022-11-20T07:51:04;1.77;;;1.60;;
16159;SDS011;8185;57.818;15.224;2022-11-20T07:53:31;1.67;;;1.57;;
16159;SDS011;8185;57.818;15.224;2022-11-20T07:55:59;1.50;;;1.40;;
16159;SDS011;8185;57.818;15.224;2022-11-20T07:58:28;2.20;;;1.60;;
16159;SDS011;8185;57.818;15.224;2022-11-20T08:00:58;1.50;;;1.40;;
16159;SDS011;8185;57.818;15.224;2022-11-20T08:03:28;1.60;;;1.50;;
16159;SDS011;8185;57.818;15.224;2022-11-20T08:05:59;1.93;;;1.60;;
16159;SDS011;8185;57.818;15.224;2022-11-20T08:08:27;1.50;;;1.40;;
16159;SDS011;8185;57.818;15.224;2022-11-20T08:10:56;1.57;;;1.47;;
16159;SDS011;8185;57.818;15.224;2022-11-20T08:13:43;1.50;;;1.40;;
16159;SDS011;8185;57.818;15.224;2022-11-20T08:16:27;1.70;;;1.60;;
16159;SDS011;8185;57.818;15.224;2022-11-20T08:18:55;1.40;;;1.30;;
16159;SDS011;8185;57.818;15.224;2022-11-20T08:21:24;1.30;;;1.20;;
16159;SDS011;8185;57.818;15.224;2022-11-20T08:23:51;1.67;;;1.57;;
16159;SDS011;8185;57.818;15.224;2022-11-20T08:26:18;1.40;;;1.27;;
16159;SDS011;8185;57.818;15.224;2022-11-20T08:28:47;1.33;;;1.23;;
16159;SDS011;8185;57.818;15.224;2022-11-20T08:31:15;1.40;;;1.30;;
16159;SDS011;8185;57.818;15.224;2022-11-20T08:33:42;1.60;;;1.50;;
16159;SDS011;8185;57.818;15.224;2022-11-20T08:36:09;1.40;;;1.30;;
16159;SDS011;8185;57.818;15.224;2022-11-20T08:38:38;1.50;;;1.40;;
16159;SDS011;8185;57.818;15.224;2022-11-20T08:41:05;1.73;;;1.63;;
16159;SDS011;8185;57.818;15.224;2022-11-20T08:43:51;1.40;;;1.30;;
16159;SDS011;8185;57.818;15.224;2022-11-20T08:46:20;1.63;;;1.40;;
16159;SDS011;8185;57.818;15.224;2022-11-20T08:48:48;1.83;;;1.30;;
16159;SDS011;8185;57.818;15.224;2022-11-20T08:51:15;1.30;;;1.20;;
16159;SDS011;8185;57.818;15.224;2022-11-20T08:53:44;1.50;;;1.40;;
16159;SDS011;8185;57.818;15.224;2022-11-20T08:56:14;1.53;;;1.43;;
16159;SDS011;8185;57.818;15.224;2022-11-20T08:58:41;1.60;;;1.50;;
16159;SDS011;8185;57.818;15.224;2022-11-20T09:01:08;1.60;;;1.50;;
16159;SDS011;8185;57.818;15.224;2022-11-20T09:03:36;1.40;;;1.30;;
16159;SDS011;8185;57.818;15.224;2022-11-20T09:06:04;1.47;;;1.37;;
16159;SDS011;8185;57.818;15.224;2022-11-20T09:08:32;1.50;;;1.40;;
16159;SDS011;8185;57.818;15.224;2022-11-20T09:11:02;1.70;;;1.60;;
16159;SDS011;8185;57.818;15.224;2022-11-20T09:13:30;1.40;;;1.30;;
16159;SDS011;8185;57.818;15.224;2022-11-20T09:15:59;1.17;;;1.07;;
16159;SDS011;8185;57.818;15.224;2022-11-20T09:18:28;1.57;;;1.47;;
16159;SDS011;8185;57.818;15.224;2022-11-20T09:20:57;1.60;;;1.50;;
16159;SDS011;8185;57.818;15.224;2022-11-20T09:23:26;1.50;;;1.23;;
16159;SDS011;8185;57.818;15.224;2022-11-20T09:25:54;1.50;;;1.40;;
16159;SDS011;8185;57.818;15.224;2022-11-20T09:28:26;1.47;;;1.37;;
16159;SDS011;8185;57.818;15.224;2022-11-20T09:30:53;1.40;;;1.30;;
16159;SDS011;8185;57.818;15.224;2022-11-20T09:33:20;1.50;;;1.40;;
16159;SDS011;8185;57.818;15.224;2022-11-20T09:35:48;1.50;;;1.40;;
16159;SDS011;8185;57.818;15.224;2022-11-20T09:38:15;1.37;;;1.10;;
16159;SDS011;8185;57.818;15.224;2022-11-20T09:40:44;1.40;;;1.30;;
16159;SDS011;8185;57.818;15.224;2022-11-20T09:43:16;1.30;;;1.20;;
16159;SDS011;8185;57.818;15.224;2022-11-20T09:45:56;1.10;;;1.10;;
16159;SDS011;8185;57.818;15.224;2022-11-20T09:48:36;1.00;;;1.00;;
16159;SDS011;8185;57.818;15.224;2022-11-20T09:51:16;1.30;;;1.20;;
16159;SDS011;8185;57.818;15.224;2022-11-20T09:53:55;1.30;;;1.20;;
16159;SDS011;8185;57.818;15.224;2022-11-20T09:56:30;1.43;;;1.33;;
16159;SDS011;8185;57.818;15.224;2022-11-20T09:58:59;1.27;;;1.17;;
16159;SDS011;8185;57.818;15.224;2022-11-20T10:01:32;1.27;;;1.10;;
16159;SDS011;8185;57.818;15.224;2022-11-20T10:04:03;1.20;;;1.10;;
16159;SDS011;8185;57.818;15.224;2022-11-20T10:06:37;1.03;;;1.00;;
16159;SDS011;8185;57.818;15.224;2022-11-20T10:09:15;1.00;;;1.00;;
16159;SDS011;8185;57.818;15.224;2022-11-20T10:11:51;1.00;;;1.00;;
16159;SDS011;8185;57.818;15.224;2022-11-20T10:14:28;2.00;;;1.17;;
16159;SDS011;8185;57.818;15.224;2022-11-20T10:17:08;1.10;;;1.07;;
16159;SDS011;8185;57.818;15.224;2022-11-20T10:19:54;0.90;;;0.90;;
16159;SDS011;8185;57.818;15.224;2022-11-20T10:22:35;1.20;;;1.00;;
16159;SDS011;8185;57.818;15.224;2022-11-20T10:25:14;1.10;;;1.00;;
16159;SDS011;8185;57.818;15.224;2022-11-20T10:27:54;1.17;;;1.07;;
16159;SDS011;8185;57.818;15.224;2022-11-20T10:30:40;1.10;;;1.00;;
16159;SDS011;8185;57.818;15.224;2022-11-20T10:33:13;1.07;;;1.00;;
16159;SDS011;8185;57.818;15.224;2022-11-20T10:35:44;2.10;;;1.33;;
16159;SDS011;8185;57.818;15.224;2022-11-20T10:38:16;0.90;;;0.90;;
16159;SDS011;8185;57.818;15.224;2022-11-20T10:40:48;1.37;;;1.27;;
16159;SDS011;8185;57.818;15.224;2022-11-20T10:43:39;0.90;;;0.90;;
16159;SDS011;8185;57.818;15.224;2022-11-20T10:46:08;1.10;;;1.00;;
16159;SDS011;8185;57.818;15.224;2022-11-20T10:48:42;1.07;;;1.07;;
16159;SDS011;8185;57.818;15.224;2022-11-20T10:51:13;1.23;;;1.13;;
16159;SDS011;8185;57.818;15.224;2022-11-20T10:53:53;0.97;;;0.97;;
16159;SDS011;8185;57.818;15.224;2022-11-20T10:56:26;1.20;;;1.10;;
16159;SDS011;8185;57.818;15.224;2022-11-20T10:59:03;1.00;;;1.00;;
16159;SDS011;8185;57.818;15.224;2022-11-20T11:01:43;1.20;;;1.10;;
16159;SDS011;8185;57.818;15.224;2022-11-20T11:04:18;1.30;;;1.20;;
16159;SDS011;8185;57.818;15.224;2022-11-20T11:07:01;1.30;;;1.20;;
16159;SDS011;8185;57.818;15.224;2022-11-20T11:09:36;1.00;;;0.90;;
16159;SDS011;8185;57.818;15.224;2022-11-20T11:12:06;1.10;;;1.00;;
16159;SDS011;8185;57.818;15.224;2022-11-20T11:14:42;1.30;;;1.07;;
16159;SDS011;8185;57.818;15.224;2022-11-20T11:17:21;1.37;;;1.27;;
16159;SDS011;8185;57.818;15.224;2022-11-20T11:20:03;1.00;;;1.00;;
16159;SDS011;8185;57.818;15.224;2022-11-20T11:22:34;1.00;;;0.90;;
16159;SDS011;8185;57.818;15.224;2022-11-20T11:25:12;1.30;;;1.20;;
16159;SDS011;8185;57.818;15.224;2022-11-20T11:27:51;1.50;;;1.40;;
16159;SDS011;8185;57.818;15.224;2022-11-20T11:30:21;1.37;;;1.17;;
16159;SDS011;8185;57.818;15.224;2022-11-20T11:32:50;1.17;;;1.10;;
16159;SDS011;8185;57.818;15.224;2022-11-20T11:35:29;1.30;;;1.20;;
16159;SDS011;8185;57.818;15.224;2022-11-20T11:38:02;1.20;;;1.10;;
16159;SDS011;8185;57.818;15.224;2022-11-20T11:40:32;1.20;;;1.10;;
16159;SDS011;8185;57.818;15.224;2022-11-20T11:43:02;1.37;;;1.10;;
16159;SDS011;8185;57.818;15.224;2022-11-20T11:45:52;1.43;;;1.13;;
16159;SDS011;8185;57.818;15.224;2022-11-20T11:48:20;1.40;;;1.30;;
16159;SDS011;8185;57.818;15.224;2022-11-20T11:50:50;0.97;;;0.97;;
16159;SDS011;8185;57.818;15.224;2022-11-20T11:53:17;1.40;;;1.30;;
16159;SDS011;8185;57.818;15.224;2022-11-20T11:55:49;1.20;;;1.10;;
16159;SDS011;8185;57.818;15.224;2022-11-20T11:58:27;1.03;;;1.00;;
16159;SDS011;8185;57.818;15.224;2022-11-20T12:01:02;1.23;;;1.13;;
16159;SDS011;8185;57.818;15.224;2022-11-20T12:03:34;1.10;;;1.00;;
16159;SDS011;8185;57.818;15.224;2022-11-20T12:06:06;1.00;;;0.83;;
16159;SDS011;8185;57.818;15.224;2022-11-20T12:08:40;0.87;;;0.87;;
16159;SDS011;8185;57.818;15.224;2022-11-20T12:11:14;1.00;;;1.00;;
16159;SDS011;8185;57.818;15.224;2022-11-20T12:13:48;1.27;;;1.17;;
16159;SDS011;8185;57.818;15.224;2022-11-20T12:16:20;1.30;;;1.20;;
16159;SDS011;8185;57.818;15.224;2022-11-20T12:18:48;1.03;;;1.00;;
16159;SDS011;8185;57.818;15.224;2022-11-20T12:21:23;1.10;;;1.00;;
16159;SDS011;8185;57.818;15.224;2022-11-20T12:24:02;0.90;;;0.90;;
16159;SDS011;8185;57.818;15.224;2022-11-20T12:26:48;1.20;;;1.10;;
16159;SDS011;8185;57.818;15.224;2022-11-20T12:29:27;1.10;;;1.00;;
16159;SDS011;8185;57.818;15.224;2022-11-20T12:32:13;1.00;;;1.00;;
16159;SDS011;8185;57.818;15.224;2022-11-20T12:35:03;1.20;;;1.10;;
16159;SDS011;8185;57.818;15.224;2022-11-20T12:37:48;0.97;;;0.90;;
16159;SDS011;8185;57.818;15.224;2022-11-20T12:40:24;0.80;;;0.80;;
16159;SDS011;8185;57.818;15.224;2022-11-20T12:43:01;1.17;;;1.07;;
16159;SDS011;8185;57.818;15.224;2022-11-20T12:46:02;1.00;;;1.00;;
16159;SDS011;8185;57.818;15.224;2022-11-20T12:48:45;1.10;;;1.00;;
16159;SDS011;8185;57.818;15.224;2022-11-20T12:51:33;1.17;;;1.07;;
16159;SDS011;8185;57.818;15.224;2022-11-20T12:54:22;1.10;;;1.00;;
16159;SDS011;8185;57.818;15.224;2022-11-20T12:57:03;1.10;;;1.00;;
16159;SDS011;8185;57.818;15.224;2022-11-20T12:59:51;1.00;;;1.00;;
16159;SDS011;8185;57.818;15.224;2022-11-20T13:02:39;1.20;;;1.07;;
16159;SDS011;8185;57.818;15.224;2022-11-20T13:05:19;1.17;;;1.10;;
16159;SDS011;8185;57.818;15.224;2022-11-20T13:07:51;1.20;;;1.10;;
16159;SDS011;8185;57.818;15.224;2022-11-20T13:10:23;1.20;;;1.10;;
16159;SDS011;8185;57.818;15.224;2022-11-20T13:12:58;1.57;;;1.20;;
16159;SDS011;8185;57.818;15.224;2022-11-20T13:15:35;1.57;;;1.30;;
16159;SDS011;8185;57.818;15.224;2022-11-20T13:18:11;1.30;;;1.20;;
16159;SDS011;8185;57.818;15.224;2022-11-20T13:20:41;1.23;;;1.10;;
16159;SDS011;8185;57.818;15.224;2022-11-20T13:23:09;1.17;;;1.07;;
16159;SDS011;8185;57.818;15.224;2022-11-20T13:25:39;1.50;;;1.20;;
16159;SDS011;8185;57.818;15.224;2022-11-20T13:30:55;1.20;;;1.10;;
16159;SDS011;8185;57.818;15.224;2022-11-20T13:33:26;1.30;;;1.10;;
16159;SDS011;8185;57.818;15.224;2022-11-20T13:35:56;1.40;;;1.30;;
16159;SDS011;8185;57.818;15.224;2022-11-20T13:38:25;2.13;;;1.30;;
16159;SDS011;8185;57.818;15.224;2022-11-20T13:40:55;1.40;;;1.30;;
16159;SDS011;8185;57.818;15.224;2022-11-20T13:43:27;1.87;;;1.77;;
16159;SDS011;8185;57.818;15.224;2022-11-20T13:46:01;1.60;;;1.50;;
16159;SDS011;8185;57.818;15.224;2022-11-20T13:48:30;1.80;;;1.70;;
16159;SDS011;8185;57.818;15.224;2022-11-20T13:51:03;1.53;;;1.43;;
16159;SDS011;8185;57.818;15.224;2022-11-20T13:56:50;1.40;;;1.30;;
16159;SDS011;8185;57.818;15.224;2022-11-20T13:59:32;1.40;;;1.30;;
16159;SDS011;8185;57.818;15.224;2022-11-20T14:02:11;1.50;;;1.40;;
16159;SDS011;8185;57.818;15.224;2022-11-20T14:04:42;1.30;;;1.20;;
16159;SDS011;8185;57.818;15.224;2022-11-20T14:07:14;1.50;;;1.40;;
16159;SDS011;8185;57.818;15.224;2022-11-20T14:09:49;1.30;;;1.20;;
16159;SDS011;8185;57.818;15.224;2022-11-20T14:12:20;1.30;;;1.20;;
16159;SDS011;8185;57.818;15.224;2022-11-20T14:14:50;1.23;;;1.10;;
16159;SDS011;8185;57.818;15.224;2022-11-20T14:17:23;2.10;;;1.30;;
16159;SDS011;8185;57.818;15.224;2022-11-20T14:19:57;1.40;;;1.30;;
16159;SDS011;8185;57.818;15.224;2022-11-20T14:22:28;1.20;;;1.10;;
16159;SDS011;8185;57.818;15.224;2022-11-20T14:25:04;1.27;;;1.17;;
16159;SDS011;8185;57.818;15.224;2022-11-20T14:27:35;1.20;;;1.10;;
16159;SDS011;8185;57.818;15.224;2022-11-20T14:30:04;1.50;;;1.20;;
16159;SDS011;8185;57.818;15.224;2022-11-20T14:32:33;1.33;;;0.90;;
16159;SDS011;8185;57.818;15.224;2022-11-20T14:35:03;0.93;;;0.90;;
16159;SDS011;8185;57.818;15.224;2022-11-20T14:37:36;0.90;;;0.90;;
16159;SDS011;8185;57.818;15.224;2022-11-20T14:40:14;1.10;;;1.00;;
16159;SDS011;8185;57.818;15.224;2022-11-20T14:42:52;1.00;;;0.90;;
16159;SDS011;8185;57.818;15.224;2022-11-20T14:45:19;1.03;;;1.00;;
16159;SDS011;8185;57.818;15.224;2022-11-20T14:47:47;1.00;;;1.00;;
16159;SDS011;8185;57.818;15.224;2022-11-20T14:50:17;1.20;;;1.10;;
16159;SDS011;8185;57.818;15.224;2022-11-20T14:52:51;1.20;;;1.10;;
16159;SDS011;8185;57.818;15.224;2022-11-20T14:55:26;1.20;;;1.10;;
16159;SDS011;8185;57.818;15.224;2022-11-20T14:57:56;1.07;;;1.00;;
16159;SDS011;8185;57.818;15.224;2022-11-20T15:00:24;1.03;;;0.97;;
16159;SDS011;8185;57.818;15.224;2022-11-20T15:02:52;0.97;;;0.97;;
16159;SDS011;8185;57.818;15.224;2022-11-20T15:05:20;1.20;;;1.10;;
16159;SDS011;8185;57.818;15.224;2022-11-20T15:07:50;1.00;;;1.00;;
16159;SDS011;8185;57.818;15.224;2022-11-20T15:10:20;1.30;;;1.20;;
16159;SDS011;8185;57.818;15.224;2022-11-20T15:12:49;1.20;;;1.10;;
16159;SDS011;8185;57.818;15.224;2022-11-20T15:15:20;1.93;;;1.10;;